sensor_id;sensor_type;location;lat;lon;timestamp;P1;durP1;ratioP1;P2;durP2;ratioP2
12228;SDS011;6177;52.402;9.800;2022-10-29T00:01:37;9.50;;;5.68;;
12228;SDS011;6177;52.402;9.800;2022-10-29T00:04:22;9.55;;;5.78;;
12228;SDS011;6177;52.402;9.800;2022-10-29T00:07:09;9.77;;;5.55;;
12228;SDS011;6177;52.402;9.800;2022-10-29T00:09:55;12.00;;;5.45;;
12228;SDS011;6177;52.402;9.800;2022-10-29T00:12:40;7.15;;;4.72;;
12228;SDS011;6177;52.402;9.800;2022-10-29T00:15:24;9.27;;;5.33;;
12228;SDS011;6177;52.402;9.800;2022-10-29T00:18:09;6.78;;;4.90;;
12228;SDS011;6177;52.402;9.800;2022-10-29T00:20:59;7.90;;;4.85;;
12228;SDS011;6177;52.402;9.800;2022-10-29T00:23:45;9.90;;;4.82;;
12228;SDS011;6177;52.402;9.800;2022-10-29T00:26:30;10.48;;;5.28;;
12228;SDS011;6177;52.402;9.800;2022-10-29T00:29:17;9.70;;;5.10;;
12228;SDS011;6177;52.402;9.800;2022-10-29T00:32:03;5.88;;;4.22;;
12228;SDS011;6177;52.402;9.800;2022-10-29T00:34:47;6.57;;;4.50;;
12228;SDS011;6177;52.402;9.800;2022-10-29T00:37:34;11.38;;;4.88;;
12228;SDS011;6177;52.402;9.800;2022-10-29T00:40:21;10.73;;;4.97;;
12228;SDS011;6177;52.402;9.800;2022-10-29T00:43:13;7.38;;;4.97;;
12228;SDS011;6177;52.402;9.800;2022-10-29T00:48:50;9.48;;;5.50;;
12228;SDS011;6177;52.402;9.800;2022-10-29T00:51:37;9.00;;;5.68;;
12228;SDS011;6177;52.402;9.800;2022-10-29T00:54:22;12.60;;;6.32;;
12228;SDS011;6177;52.402;9.800;2022-10-29T00:57:08;15.60;;;6.93;;
12228;SDS011;6177;52.402;9.800;2022-10-29T00:59:55;8.13;;;5.70;;
12228;SDS011;6177;52.402;9.800;2022-10-29T01:02:40;11.98;;;5.90;;
12228;SDS011;6177;52.402;9.800;2022-10-29T01:05:26;11.77;;;6.07;;
12228;SDS011;6177;52.402;9.800;2022-10-29T01:08:12;11.05;;;5.85;;
12228;SDS011;6177;52.402;9.800;2022-10-29T01:11:01;7.43;;;4.83;;
12228;SDS011;6177;52.402;9.800;2022-10-29T01:20:25;9.63;;;6.00;;
12228;SDS011;6177;52.402;9.800;2022-10-29T01:23:24;10.98;;;5.93;;
12228;SDS011;6177;52.402;9.800;2022-10-29T01:38:25;7.32;;;5.75;;
12228;SDS011;6177;52.402;9.800;2022-10-29T01:41:25;9.20;;;6.05;;
12228;SDS011;6177;52.402;9.800;2022-10-29T01:44:34;11.90;;;6.03;;
12228;SDS011;6177;52.402;9.800;2022-10-29T01:48:00;14.88;;;6.45;;
12228;SDS011;6177;52.402;9.800;2022-10-29T01:50:50;10.25;;;6.50;;
12228;SDS011;6177;52.402;9.800;2022-10-29T01:53:40;12.15;;;6.57;;
12228;SDS011;6177;52.402;9.800;2022-10-29T01:56:25;12.73;;;6.65;;
12228;SDS011;6177;52.402;9.800;2022-10-29T01:59:10;12.65;;;6.78;;
12228;SDS011;6177;52.402;9.800;2022-10-29T02:02:16;14.00;;;7.15;;
12228;SDS011;6177;52.402;9.800;2022-10-29T02:05:24;12.23;;;7.25;;
12228;SDS011;6177;52.402;9.800;2022-10-29T02:08:20;9.85;;;6.65;;
12228;SDS011;6177;52.402;9.800;2022-10-29T02:11:26;15.75;;;7.85;;
12228;SDS011;6177;52.402;9.800;2022-10-29T02:14:22;17.98;;;7.35;;
12228;SDS011;6177;52.402;9.800;2022-10-29T02:17:12;15.77;;;8.20;;
12228;SDS011;6177;52.402;9.800;2022-10-29T02:19:57;12.68;;;6.95;;
12228;SDS011;6177;52.402;9.800;2022-10-29T02:22:41;14.23;;;8.35;;
12228;SDS011;6177;52.402;9.800;2022-10-29T02:25:27;12.63;;;7.13;;
12228;SDS011;6177;52.402;9.800;2022-10-29T02:28:16;14.50;;;7.10;;
12228;SDS011;6177;52.402;9.800;2022-10-29T02:31:00;12.65;;;7.57;;
12228;SDS011;6177;52.402;9.800;2022-10-29T02:33:45;16.13;;;7.68;;
12228;SDS011;6177;52.402;9.800;2022-10-29T02:36:29;10.03;;;6.40;;
12228;SDS011;6177;52.402;9.800;2022-10-29T02:39:14;10.57;;;6.80;;
12228;SDS011;6177;52.402;9.800;2022-10-29T02:41:58;14.77;;;7.40;;
12228;SDS011;6177;52.402;9.800;2022-10-29T02:44:43;13.80;;;6.63;;
12228;SDS011;6177;52.402;9.800;2022-10-29T02:47:28;12.53;;;7.07;;
12228;SDS011;6177;52.402;9.800;2022-10-29T02:50:18;12.43;;;6.75;;
12228;SDS011;6177;52.402;9.800;2022-10-29T02:53:05;12.20;;;7.20;;
12228;SDS011;6177;52.402;9.800;2022-10-29T02:55:54;15.97;;;7.97;;
12228;SDS011;6177;52.402;9.800;2022-10-29T02:58:42;10.00;;;6.53;;
12228;SDS011;6177;52.402;9.800;2022-10-29T03:01:26;13.03;;;7.07;;
12228;SDS011;6177;52.402;9.800;2022-10-29T03:04:11;11.43;;;7.03;;
12228;SDS011;6177;52.402;9.800;2022-10-29T03:06:55;12.13;;;7.70;;
12228;SDS011;6177;52.402;9.800;2022-10-29T03:09:40;10.07;;;7.37;;
12228;SDS011;6177;52.402;9.800;2022-10-29T03:12:24;13.10;;;7.27;;
12228;SDS011;6177;52.402;9.800;2022-10-29T03:15:11;10.80;;;7.53;;
12228;SDS011;6177;52.402;9.800;2022-10-29T03:17:58;13.83;;;8.07;;
12228;SDS011;6177;52.402;9.800;2022-10-29T03:20:52;16.40;;;8.33;;
12228;SDS011;6177;52.402;9.800;2022-10-29T03:23:39;15.00;;;7.63;;
12228;SDS011;6177;52.402;9.800;2022-10-29T03:26:26;12.17;;;9.13;;
12228;SDS011;6177;52.402;9.800;2022-10-29T03:29:15;15.10;;;8.07;;
12228;SDS011;6177;52.402;9.800;2022-10-29T03:32:06;12.13;;;6.73;;
12228;SDS011;6177;52.402;9.800;2022-10-29T03:34:50;17.40;;;8.27;;
12228;SDS011;6177;52.402;9.800;2022-10-29T03:37:35;14.47;;;9.50;;
12228;SDS011;6177;52.402;9.800;2022-10-29T03:40:20;14.27;;;9.07;;
12228;SDS011;6177;52.402;9.800;2022-10-29T03:43:05;11.00;;;8.17;;
12228;SDS011;6177;52.402;9.800;2022-10-29T03:45:53;12.83;;;9.43;;
12228;SDS011;6177;52.402;9.800;2022-10-29T03:48:39;12.23;;;8.60;;
12228;SDS011;6177;52.402;9.800;2022-10-29T03:51:23;13.57;;;8.90;;
12228;SDS011;6177;52.402;9.800;2022-10-29T03:54:08;11.77;;;9.27;;
12228;SDS011;6177;52.402;9.800;2022-10-29T03:56:53;15.27;;;8.80;;
12228;SDS011;6177;52.402;9.800;2022-10-29T03:59:37;17.63;;;10.07;;
12228;SDS011;6177;52.402;9.800;2022-10-29T04:02:22;17.63;;;9.73;;
12228;SDS011;6177;52.402;9.800;2022-10-29T04:05:07;14.50;;;9.27;;
12228;SDS011;6177;52.402;9.800;2022-10-29T04:07:52;13.43;;;9.67;;
12228;SDS011;6177;52.402;9.800;2022-10-29T04:10:49;14.83;;;9.07;;
12228;SDS011;6177;52.402;9.800;2022-10-29T04:13:37;14.77;;;9.90;;
12228;SDS011;6177;52.402;9.800;2022-10-29T04:16:22;13.87;;;9.67;;
12228;SDS011;6177;52.402;9.800;2022-10-29T04:19:08;16.63;;;9.27;;
12228;SDS011;6177;52.402;9.800;2022-10-29T04:21:53;13.80;;;10.53;;
12228;SDS011;6177;52.402;9.800;2022-10-29T04:24:42;14.73;;;9.00;;
12228;SDS011;6177;52.402;9.800;2022-10-29T04:27:29;17.23;;;9.63;;
12228;SDS011;6177;52.402;9.800;2022-10-29T04:30:16;16.73;;;10.20;;
12228;SDS011;6177;52.402;9.800;2022-10-29T04:33:02;14.70;;;9.63;;
12228;SDS011;6177;52.402;9.800;2022-10-29T04:35:51;17.77;;;9.80;;
12228;SDS011;6177;52.402;9.800;2022-10-29T04:38:37;14.33;;;9.77;;
12228;SDS011;6177;52.402;9.800;2022-10-29T04:41:23;19.63;;;10.40;;
12228;SDS011;6177;52.402;9.800;2022-10-29T04:44:08;15.93;;;10.33;;
12228;SDS011;6177;52.402;9.800;2022-10-29T04:46:53;17.47;;;10.13;;
12228;SDS011;6177;52.402;9.800;2022-10-29T04:49:39;16.77;;;9.90;;
12228;SDS011;6177;52.402;9.800;2022-10-29T04:52:24;17.13;;;9.37;;
12228;SDS011;6177;52.402;9.800;2022-10-29T04:55:09;16.47;;;10.23;;
12228;SDS011;6177;52.402;9.800;2022-10-29T04:57:53;15.90;;;10.07;;
12228;SDS011;6177;52.402;9.800;2022-10-29T05:00:40;15.77;;;10.13;;
12228;SDS011;6177;52.402;9.800;2022-10-29T05:03:25;14.60;;;10.20;;
12228;SDS011;6177;52.402;9.800;2022-10-29T05:06:11;16.67;;;10.93;;
12228;SDS011;6177;52.402;9.800;2022-10-29T05:08:56;18.40;;;9.77;;
12228;SDS011;6177;52.402;9.800;2022-10-29T05:11:42;14.17;;;9.97;;
12228;SDS011;6177;52.402;9.800;2022-10-29T05:14:26;16.07;;;10.43;;
12228;SDS011;6177;52.402;9.800;2022-10-29T05:17:11;16.70;;;10.23;;
12228;SDS011;6177;52.402;9.800;2022-10-29T05:19:56;14.70;;;10.20;;
12228;SDS011;6177;52.402;9.800;2022-10-29T05:22:41;17.53;;;10.70;;
12228;SDS011;6177;52.402;9.800;2022-10-29T05:25:27;23.20;;;10.63;;
12228;SDS011;6177;52.402;9.800;2022-10-29T05:28:14;14.63;;;10.07;;
12228;SDS011;6177;52.402;9.800;2022-10-29T05:31:04;20.57;;;10.30;;
12228;SDS011;6177;52.402;9.800;2022-10-29T05:33:49;16.40;;;10.20;;
12228;SDS011;6177;52.402;9.800;2022-10-29T05:36:34;15.10;;;9.57;;
12228;SDS011;6177;52.402;9.800;2022-10-29T05:39:18;12.67;;;9.17;;
12228;SDS011;6177;52.402;9.800;2022-10-29T05:42:04;14.37;;;9.27;;
12228;SDS011;6177;52.402;9.800;2022-10-29T05:44:48;15.77;;;8.70;;
12228;SDS011;6177;52.402;9.800;2022-10-29T05:47:33;16.03;;;9.70;;
12228;SDS011;6177;52.402;9.800;2022-10-29T05:50:18;17.97;;;10.33;;
12228;SDS011;6177;52.402;9.800;2022-10-29T05:53:03;16.87;;;10.13;;
12228;SDS011;6177;52.402;9.800;2022-10-29T05:55:49;15.70;;;9.70;;
12228;SDS011;6177;52.402;9.800;2022-10-29T05:58:34;16.47;;;10.27;;
12228;SDS011;6177;52.402;9.800;2022-10-29T06:01:19;16.07;;;9.90;;
12228;SDS011;6177;52.402;9.800;2022-10-29T06:04:03;13.03;;;9.00;;
12228;SDS011;6177;52.402;9.800;2022-10-29T06:06:48;16.50;;;10.00;;
12228;SDS011;6177;52.402;9.800;2022-10-29T06:09:32;16.37;;;9.93;;
12228;SDS011;6177;52.402;9.800;2022-10-29T06:12:17;17.73;;;10.53;;
12228;SDS011;6177;52.402;9.800;2022-10-29T06:15:02;17.07;;;9.43;;
12228;SDS011;6177;52.402;9.800;2022-10-29T06:17:48;12.43;;;8.87;;
12228;SDS011;6177;52.402;9.800;2022-10-29T06:20:32;16.77;;;9.90;;
12228;SDS011;6177;52.402;9.800;2022-10-29T06:23:17;16.90;;;10.00;;
12228;SDS011;6177;52.402;9.800;2022-10-29T06:26:02;18.83;;;9.80;;
12228;SDS011;6177;52.402;9.800;2022-10-29T06:28:47;14.33;;;9.37;;
12228;SDS011;6177;52.402;9.800;2022-10-29T06:31:32;16.67;;;10.10;;
12228;SDS011;6177;52.402;9.800;2022-10-29T06:34:16;14.90;;;9.37;;
12228;SDS011;6177;52.402;9.800;2022-10-29T06:37:01;21.97;;;10.73;;
12228;SDS011;6177;52.402;9.800;2022-10-29T06:39:46;15.53;;;9.50;;
12228;SDS011;6177;52.402;9.800;2022-10-29T06:42:30;19.10;;;10.07;;
12228;SDS011;6177;52.402;9.800;2022-10-29T06:45:15;14.80;;;9.30;;
12228;SDS011;6177;52.402;9.800;2022-10-29T06:48:00;13.93;;;9.97;;
12228;SDS011;6177;52.402;9.800;2022-10-29T06:50:45;16.93;;;10.33;;
12228;SDS011;6177;52.402;9.800;2022-10-29T06:53:29;19.37;;;10.47;;
12228;SDS011;6177;52.402;9.800;2022-10-29T06:56:14;14.10;;;9.80;;
12228;SDS011;6177;52.402;9.800;2022-10-29T06:58:59;14.77;;;9.03;;
12228;SDS011;6177;52.402;9.800;2022-10-29T07:01:44;13.23;;;8.53;;
12228;SDS011;6177;52.402;9.800;2022-10-29T07:04:29;13.57;;;9.97;;
12228;SDS011;6177;52.402;9.800;2022-10-29T07:07:14;14.23;;;9.37;;
12228;SDS011;6177;52.402;9.800;2022-10-29T07:09:58;16.67;;;10.10;;
12228;SDS011;6177;52.402;9.800;2022-10-29T07:12:43;11.93;;;8.47;;
12228;SDS011;6177;52.402;9.800;2022-10-29T07:15:28;13.60;;;9.40;;
12228;SDS011;6177;52.402;9.800;2022-10-29T07:18:13;13.17;;;9.33;;
12228;SDS011;6177;52.402;9.800;2022-10-29T07:21:00;17.97;;;9.23;;
12228;SDS011;6177;52.402;9.800;2022-10-29T07:23:45;16.60;;;8.87;;
12228;SDS011;6177;52.402;9.800;2022-10-29T07:26:30;18.33;;;8.97;;
12228;SDS011;6177;52.402;9.800;2022-10-29T07:29:15;14.87;;;9.00;;
12228;SDS011;6177;52.402;9.800;2022-10-29T07:32:00;13.97;;;9.83;;
12228;SDS011;6177;52.402;9.800;2022-10-29T07:34:44;15.67;;;9.13;;
12228;SDS011;6177;52.402;9.800;2022-10-29T07:37:29;14.70;;;9.10;;
12228;SDS011;6177;52.402;9.800;2022-10-29T07:40:13;12.23;;;8.70;;
12228;SDS011;6177;52.402;9.800;2022-10-29T07:42:58;12.03;;;9.23;;
12228;SDS011;6177;52.402;9.800;2022-10-29T07:45:43;11.57;;;8.30;;
12228;SDS011;6177;52.402;9.800;2022-10-29T07:48:29;14.43;;;9.67;;
12228;SDS011;6177;52.402;9.800;2022-10-29T07:51:13;11.37;;;8.53;;
12228;SDS011;6177;52.402;9.800;2022-10-29T07:53:58;19.30;;;9.30;;
12228;SDS011;6177;52.402;9.800;2022-10-29T07:56:42;14.93;;;9.27;;
12228;SDS011;6177;52.402;9.800;2022-10-29T07:59:27;16.30;;;9.03;;
12228;SDS011;6177;52.402;9.800;2022-10-29T08:02:12;13.47;;;9.50;;
12228;SDS011;6177;52.402;9.800;2022-10-29T08:04:56;15.63;;;9.07;;
12228;SDS011;6177;52.402;9.800;2022-10-29T08:07:41;14.93;;;9.13;;
12228;SDS011;6177;52.402;9.800;2022-10-29T08:10:26;15.53;;;9.37;;
12228;SDS011;6177;52.402;9.800;2022-10-29T08:13:12;15.77;;;8.93;;
12228;SDS011;6177;52.402;9.800;2022-10-29T08:15:56;14.73;;;8.97;;
12228;SDS011;6177;52.402;9.800;2022-10-29T08:18:41;15.00;;;8.53;;
12228;SDS011;6177;52.402;9.800;2022-10-29T08:21:26;11.23;;;7.80;;
12228;SDS011;6177;52.402;9.800;2022-10-29T08:24:10;13.43;;;8.50;;
12228;SDS011;6177;52.402;9.800;2022-10-29T08:26:55;14.00;;;9.00;;
12228;SDS011;6177;52.402;9.800;2022-10-29T08:29:40;13.70;;;8.37;;
12228;SDS011;6177;52.402;9.800;2022-10-29T08:32:24;18.23;;;8.37;;
12228;SDS011;6177;52.402;9.800;2022-10-29T08:35:09;14.37;;;8.37;;
12228;SDS011;6177;52.402;9.800;2022-10-29T08:37:54;18.08;;;9.00;;
12228;SDS011;6177;52.402;9.800;2022-10-29T08:41:05;13.73;;;8.43;;
12228;SDS011;6177;52.402;9.800;2022-10-29T08:46:51;13.13;;;7.80;;
12228;SDS011;6177;52.402;9.800;2022-10-29T08:53:20;14.38;;;8.15;;
12228;SDS011;6177;52.402;9.800;2022-10-29T08:56:13;13.52;;;7.80;;
12228;SDS011;6177;52.402;9.800;2022-10-29T08:59:12;15.82;;;8.15;;
12228;SDS011;6177;52.402;9.800;2022-10-29T09:02:01;11.50;;;8.13;;
12228;SDS011;6177;52.402;9.800;2022-10-29T09:04:46;14.00;;;7.55;;
12228;SDS011;6177;52.402;9.800;2022-10-29T09:07:36;12.98;;;8.65;;
12228;SDS011;6177;52.402;9.800;2022-10-29T09:16:41;17.13;;;8.40;;
12228;SDS011;6177;52.402;9.800;2022-10-29T09:19:38;15.93;;;8.27;;
12228;SDS011;6177;52.402;9.800;2022-10-29T09:22:46;14.23;;;8.02;;
12228;SDS011;6177;52.402;9.800;2022-10-29T09:25:48;11.60;;;7.73;;
12228;SDS011;6177;52.402;9.800;2022-10-29T09:31:36;18.48;;;8.27;;
12228;SDS011;6177;52.402;9.800;2022-10-29T09:40:38;10.02;;;6.80;;
12228;SDS011;6177;52.402;9.800;2022-10-29T09:43:42;16.42;;;7.15;;
12228;SDS011;6177;52.402;9.800;2022-10-29T09:52:49;8.65;;;6.18;;
12228;SDS011;6177;52.402;9.800;2022-10-29T09:55:42;11.20;;;6.28;;
12228;SDS011;6177;52.402;9.800;2022-10-29T09:58:28;11.85;;;5.75;;
12228;SDS011;6177;52.402;9.800;2022-10-29T10:01:13;10.32;;;6.07;;
12228;SDS011;6177;52.402;9.800;2022-10-29T10:03:58;13.73;;;6.03;;
12228;SDS011;6177;52.402;9.800;2022-10-29T10:07:09;15.00;;;6.97;;
12228;SDS011;6177;52.402;9.800;2022-10-29T10:09:56;11.63;;;6.50;;
12228;SDS011;6177;52.402;9.800;2022-10-29T10:12:43;14.88;;;6.80;;
12228;SDS011;6177;52.402;9.800;2022-10-29T10:15:31;10.88;;;5.63;;
12228;SDS011;6177;52.402;9.800;2022-10-29T10:18:19;12.93;;;6.03;;
12228;SDS011;6177;52.402;9.800;2022-10-29T10:24:26;12.80;;;6.47;;
12228;SDS011;6177;52.402;9.800;2022-10-29T10:27:29;11.85;;;6.05;;
12228;SDS011;6177;52.402;9.800;2022-10-29T10:30:14;9.77;;;6.03;;
12228;SDS011;6177;52.402;9.800;2022-10-29T10:33:09;14.25;;;6.20;;
12228;SDS011;6177;52.402;9.800;2022-10-29T10:36:14;12.73;;;6.75;;
12228;SDS011;6177;52.402;9.800;2022-10-29T10:39:00;8.25;;;6.05;;
12228;SDS011;6177;52.402;9.800;2022-10-29T10:41:44;8.15;;;5.88;;
12228;SDS011;6177;52.402;9.800;2022-10-29T10:44:30;16.48;;;6.10;;
12228;SDS011;6177;52.402;9.800;2022-10-29T10:47:16;13.02;;;5.88;;
12228;SDS011;6177;52.402;9.800;2022-10-29T10:53:16;14.13;;;6.10;;
12228;SDS011;6177;52.402;9.800;2022-10-29T10:56:03;12.10;;;6.45;;
12228;SDS011;6177;52.402;9.800;2022-10-29T10:58:50;9.50;;;5.93;;
12228;SDS011;6177;52.402;9.800;2022-10-29T11:01:42;10.95;;;5.65;;
12228;SDS011;6177;52.402;9.800;2022-10-29T11:04:35;13.38;;;5.60;;
12228;SDS011;6177;52.402;9.800;2022-10-29T11:07:23;13.13;;;6.15;;
12228;SDS011;6177;52.402;9.800;2022-10-29T11:10:13;11.00;;;5.80;;
12228;SDS011;6177;52.402;9.800;2022-10-29T11:13:01;9.65;;;6.00;;
12228;SDS011;6177;52.402;9.800;2022-10-29T11:16:27;15.82;;;5.90;;
12228;SDS011;6177;52.402;9.800;2022-10-29T11:30:55;11.90;;;5.45;;
12228;SDS011;6177;52.402;9.800;2022-10-29T11:33:53;11.10;;;5.57;;
12228;SDS011;6177;52.402;9.800;2022-10-29T11:36:45;9.30;;;5.53;;
12228;SDS011;6177;52.402;9.800;2022-10-29T11:42:53;9.50;;;5.18;;
12228;SDS011;6177;52.402;9.800;2022-10-29T11:45:48;10.15;;;5.13;;
12228;SDS011;6177;52.402;9.800;2022-10-29T11:57:55;7.55;;;4.75;;
12228;SDS011;6177;52.402;9.800;2022-10-29T12:16:51;9.68;;;4.55;;
12228;SDS011;6177;52.402;9.800;2022-10-29T12:20:01;11.45;;;4.90;;
12228;SDS011;6177;52.402;9.800;2022-10-29T12:23:34;6.70;;;4.40;;
12228;SDS011;6177;52.402;9.800;2022-10-29T12:30:02;8.23;;;4.55;;
12228;SDS011;6177;52.402;9.800;2022-10-29T12:33:00;7.72;;;4.18;;
12228;SDS011;6177;52.402;9.800;2022-10-29T12:36:00;11.98;;;4.45;;
12228;SDS011;6177;52.402;9.800;2022-10-29T12:39:07;9.88;;;4.35;;
12228;SDS011;6177;52.402;9.800;2022-10-29T12:42:01;8.23;;;4.40;;
12228;SDS011;6177;52.402;9.800;2022-10-29T12:51:34;9.75;;;4.70;;
12228;SDS011;6177;52.402;9.800;2022-10-29T12:57:30;13.27;;;5.18;;
12228;SDS011;6177;52.402;9.800;2022-10-29T13:03:09;14.93;;;8.50;;
12228;SDS011;6177;52.402;9.800;2022-10-29T13:05:53;8.07;;;4.80;;
12228;SDS011;6177;52.402;9.800;2022-10-29T13:08:38;6.57;;;4.28;;
12228;SDS011;6177;52.402;9.800;2022-10-29T13:11:23;12.70;;;4.72;;
12228;SDS011;6177;52.402;9.800;2022-10-29T13:14:39;7.47;;;3.80;;
12228;SDS011;6177;52.402;9.800;2022-10-29T13:20:22;10.18;;;4.25;;
12228;SDS011;6177;52.402;9.800;2022-10-29T13:26:07;8.13;;;3.90;;
12228;SDS011;6177;52.402;9.800;2022-10-29T13:28:52;6.95;;;3.53;;
12228;SDS011;6177;52.402;9.800;2022-10-29T13:31:41;13.38;;;4.10;;
12228;SDS011;6177;52.402;9.800;2022-10-29T13:43:15;9.10;;;4.15;;
12228;SDS011;6177;52.402;9.800;2022-10-29T13:49:00;5.15;;;4.15;;
12228;SDS011;6177;52.402;9.800;2022-10-29T13:54:37;8.13;;;4.47;;
12228;SDS011;6177;52.402;9.800;2022-10-29T14:00:50;8.60;;;4.07;;
12228;SDS011;6177;52.402;9.800;2022-10-29T14:06:54;8.10;;;4.50;;
12228;SDS011;6177;52.402;9.800;2022-10-29T14:09:41;11.02;;;4.72;;
12228;SDS011;6177;52.402;9.800;2022-10-29T14:12:30;9.57;;;5.22;;
12228;SDS011;6177;52.402;9.800;2022-10-29T14:15:15;9.73;;;4.15;;
12228;SDS011;6177;52.402;9.800;2022-10-29T14:18:17;8.10;;;4.75;;
12228;SDS011;6177;52.402;9.800;2022-10-29T14:24:12;6.00;;;4.38;;
12228;SDS011;6177;52.402;9.800;2022-10-29T14:27:04;8.55;;;4.38;;
12228;SDS011;6177;52.402;9.800;2022-10-29T14:29:51;10.60;;;4.03;;
12228;SDS011;6177;52.402;9.800;2022-10-29T14:32:37;7.15;;;4.45;;
12228;SDS011;6177;52.402;9.800;2022-10-29T14:35:24;7.88;;;3.78;;
12228;SDS011;6177;52.402;9.800;2022-10-29T14:38:10;10.70;;;3.92;;
12228;SDS011;6177;52.402;9.800;2022-10-29T14:40:56;8.13;;;3.60;;
12228;SDS011;6177;52.402;9.800;2022-10-29T14:43:41;6.68;;;3.78;;
12228;SDS011;6177;52.402;9.800;2022-10-29T14:46:28;9.15;;;3.72;;
12228;SDS011;6177;52.402;9.800;2022-10-29T14:55:16;9.73;;;5.30;;
12228;SDS011;6177;52.402;9.800;2022-10-29T14:58:06;8.27;;;3.92;;
12228;SDS011;6177;52.402;9.800;2022-10-29T15:01:06;7.05;;;4.32;;
12228;SDS011;6177;52.402;9.800;2022-10-29T15:03:58;10.23;;;5.28;;
12228;SDS011;6177;52.402;9.800;2022-10-29T15:06:44;6.57;;;4.13;;
12228;SDS011;6177;52.402;9.800;2022-10-29T15:09:29;6.60;;;4.05;;
12228;SDS011;6177;52.402;9.800;2022-10-29T15:12:18;8.77;;;3.90;;
12228;SDS011;6177;52.402;9.800;2022-10-29T15:17:56;7.00;;;3.70;;
12228;SDS011;6177;52.402;9.800;2022-10-29T15:26:16;6.68;;;4.13;;
12228;SDS011;6177;52.402;9.800;2022-10-29T15:29:08;6.97;;;3.80;;
12228;SDS011;6177;52.402;9.800;2022-10-29T15:31:55;12.98;;;4.50;;
12228;SDS011;6177;52.402;9.800;2022-10-29T15:34:51;6.07;;;3.85;;
12228;SDS011;6177;52.402;9.800;2022-10-29T15:37:39;8.93;;;4.68;;
12228;SDS011;6177;52.402;9.800;2022-10-29T15:40:27;6.95;;;4.65;;
12228;SDS011;6177;52.402;9.800;2022-10-29T15:43:28;11.48;;;4.75;;
12228;SDS011;6177;52.402;9.800;2022-10-29T15:46:19;9.27;;;4.80;;
12228;SDS011;6177;52.402;9.800;2022-10-29T15:49:06;7.70;;;4.15;;
12228;SDS011;6177;52.402;9.800;2022-10-29T15:51:57;10.15;;;4.30;;
12228;SDS011;6177;52.402;9.800;2022-10-29T15:54:43;9.88;;;5.05;;
12228;SDS011;6177;52.402;9.800;2022-10-29T15:57:28;9.55;;;4.88;;
12228;SDS011;6177;52.402;9.800;2022-10-29T16:00:14;8.70;;;6.82;;
12228;SDS011;6177;52.402;9.800;2022-10-29T16:03:11;10.20;;;6.93;;
12228;SDS011;6177;52.402;9.800;2022-10-29T16:05:58;13.07;;;8.77;;
12228;SDS011;6177;52.402;9.800;2022-10-29T16:11:34;14.88;;;9.15;;
12228;SDS011;6177;52.402;9.800;2022-10-29T16:14:18;12.63;;;9.40;;
12228;SDS011;6177;52.402;9.800;2022-10-29T16:17:03;11.63;;;6.82;;
12228;SDS011;6177;52.402;9.800;2022-10-29T16:19:57;13.07;;;6.45;;
12228;SDS011;6177;52.402;9.800;2022-10-29T16:22:42;9.07;;;6.20;;
12228;SDS011;6177;52.402;9.800;2022-10-29T16:25:27;14.85;;;6.72;;
12228;SDS011;6177;52.402;9.800;2022-10-29T16:28:12;12.70;;;7.30;;
12228;SDS011;6177;52.402;9.800;2022-10-29T16:30:57;11.73;;;7.43;;
12228;SDS011;6177;52.402;9.800;2022-10-29T16:33:42;16.30;;;8.30;;
12228;SDS011;6177;52.402;9.800;2022-10-29T16:36:27;15.88;;;9.65;;
12228;SDS011;6177;52.402;9.800;2022-10-29T16:39:11;15.70;;;8.55;;
12228;SDS011;6177;52.402;9.800;2022-10-29T16:41:56;14.88;;;8.30;;
12228;SDS011;6177;52.402;9.800;2022-10-29T16:44:40;13.98;;;8.48;;
12228;SDS011;6177;52.402;9.800;2022-10-29T16:47:28;12.13;;;7.53;;
12228;SDS011;6177;52.402;9.800;2022-10-29T16:50:23;12.20;;;7.25;;
12228;SDS011;6177;52.402;9.800;2022-10-29T16:53:13;14.73;;;7.18;;
12228;SDS011;6177;52.402;9.800;2022-10-29T16:55:58;11.82;;;6.95;;
12228;SDS011;6177;52.402;9.800;2022-10-29T16:58:42;8.95;;;5.93;;
12228;SDS011;6177;52.402;9.800;2022-10-29T17:01:27;9.93;;;6.45;;
12228;SDS011;6177;52.402;9.800;2022-10-29T17:04:11;12.48;;;6.38;;
12228;SDS011;6177;52.402;9.800;2022-10-29T17:06:56;9.95;;;6.55;;
12228;SDS011;6177;52.402;9.800;2022-10-29T17:09:40;10.15;;;6.22;;
12228;SDS011;6177;52.402;9.800;2022-10-29T17:12:25;10.27;;;5.68;;
12228;SDS011;6177;52.402;9.800;2022-10-29T17:15:10;8.70;;;5.88;;
12228;SDS011;6177;52.402;9.800;2022-10-29T17:17:54;13.02;;;6.63;;
12228;SDS011;6177;52.402;9.800;2022-10-29T17:20:39;7.18;;;5.45;;
12228;SDS011;6177;52.402;9.800;2022-10-29T17:23:24;10.18;;;6.75;;
12228;SDS011;6177;52.402;9.800;2022-10-29T17:26:09;9.32;;;6.50;;
12228;SDS011;6177;52.402;9.800;2022-10-29T17:28:53;11.75;;;7.35;;
12228;SDS011;6177;52.402;9.800;2022-10-29T17:31:38;13.38;;;7.72;;
12228;SDS011;6177;52.402;9.800;2022-10-29T17:34:22;14.77;;;8.13;;
12228;SDS011;6177;52.402;9.800;2022-10-29T17:37:07;14.65;;;8.98;;
12228;SDS011;6177;52.402;9.800;2022-10-29T17:39:52;14.50;;;8.50;;
12228;SDS011;6177;52.402;9.800;2022-10-29T17:42:37;14.27;;;8.35;;
12228;SDS011;6177;52.402;9.800;2022-10-29T17:45:21;18.00;;;8.98;;
12228;SDS011;6177;52.402;9.800;2022-10-29T17:48:06;16.65;;;9.90;;
12228;SDS011;6177;52.402;9.800;2022-10-29T17:53:43;16.88;;;10.15;;
12228;SDS011;6177;52.402;9.800;2022-10-29T17:56:29;16.30;;;11.23;;
12228;SDS011;6177;52.402;9.800;2022-10-29T17:59:14;16.48;;;11.50;;
12228;SDS011;6177;52.402;9.800;2022-10-29T18:01:58;15.38;;;10.40;;
12228;SDS011;6177;52.402;9.800;2022-10-29T18:04:44;23.27;;;16.77;;
12228;SDS011;6177;52.402;9.800;2022-10-29T18:07:28;14.23;;;11.60;;
12228;SDS011;6177;52.402;9.800;2022-10-29T18:10:13;15.57;;;11.15;;
12228;SDS011;6177;52.402;9.800;2022-10-29T18:12:59;13.68;;;10.45;;
12228;SDS011;6177;52.402;9.800;2022-10-29T18:15:44;14.23;;;10.48;;
12228;SDS011;6177;52.402;9.800;2022-10-29T18:18:31;18.77;;;11.10;;
12228;SDS011;6177;52.402;9.800;2022-10-29T18:21:18;20.27;;;12.80;;
12228;SDS011;6177;52.402;9.800;2022-10-29T18:24:04;13.40;;;10.43;;
12228;SDS011;6177;52.402;9.800;2022-10-29T18:26:49;16.90;;;10.40;;
12228;SDS011;6177;52.402;9.800;2022-10-29T18:29:34;14.30;;;11.00;;
12228;SDS011;6177;52.402;9.800;2022-10-29T18:32:19;15.85;;;10.13;;
12228;SDS011;6177;52.402;9.800;2022-10-29T18:35:03;15.27;;;10.40;;
12228;SDS011;6177;52.402;9.800;2022-10-29T18:37:48;15.13;;;9.45;;
12228;SDS011;6177;52.402;9.800;2022-10-29T18:40:33;16.35;;;9.90;;
12228;SDS011;6177;52.402;9.800;2022-10-29T18:43:17;15.32;;;9.90;;
12228;SDS011;6177;52.402;9.800;2022-10-29T18:46:03;11.70;;;8.52;;
12228;SDS011;6177;52.402;9.800;2022-10-29T18:48:49;13.55;;;9.20;;
12228;SDS011;6177;52.402;9.800;2022-10-29T18:51:34;9.18;;;7.65;;
12228;SDS011;6177;52.402;9.800;2022-10-29T18:54:18;16.63;;;8.00;;
12228;SDS011;6177;52.402;9.800;2022-10-29T18:57:03;9.57;;;7.28;;
12228;SDS011;6177;52.402;9.800;2022-10-29T18:59:48;12.68;;;7.88;;
12228;SDS011;6177;52.402;9.800;2022-10-29T19:02:32;11.32;;;7.45;;
12228;SDS011;6177;52.402;9.800;2022-10-29T19:05:17;11.95;;;7.50;;
12228;SDS011;6177;52.402;9.800;2022-10-29T19:08:02;10.35;;;7.35;;
12228;SDS011;6177;52.402;9.800;2022-10-29T19:10:48;13.63;;;7.72;;
12228;SDS011;6177;52.402;9.800;2022-10-29T19:13:32;17.42;;;7.70;;
12228;SDS011;6177;52.402;9.800;2022-10-29T19:16:17;10.13;;;7.07;;
12228;SDS011;6177;52.402;9.800;2022-10-29T19:19:03;8.50;;;7.00;;
12228;SDS011;6177;52.402;9.800;2022-10-29T19:21:49;10.10;;;6.95;;
12228;SDS011;6177;52.402;9.800;2022-10-29T19:24:34;10.57;;;6.65;;
12228;SDS011;6177;52.402;9.800;2022-10-29T19:27:18;10.35;;;7.13;;
12228;SDS011;6177;52.402;9.800;2022-10-29T19:30:03;9.97;;;6.67;;
12228;SDS011;6177;52.402;9.800;2022-10-29T19:32:49;12.93;;;6.57;;
12228;SDS011;6177;52.402;9.800;2022-10-29T19:35:34;18.40;;;7.35;;